Barao de Melgaco, Brazil
Current Conditions -  °F | °C
As of 9:25 AM on Monday 22 Dec 2014 (Local Time) from SBCY Reporting Station
Light Rain Light Rain  
Wind Chill: 75°   Ceiling: 2000
Heat Index: 75°   Visibility: 5mi
Dew Point: 72°   Wind: 7mph
Humidity: 89%   Direction: 290°WNW
Pressure: 29.94"   Gusts: NA
Location:  16.19°S, 55.97°W
Report Text: SBCY 221225Z 29006KT 8000 -RA BKN020 FEW025TCU BKN100 24/22 Q1014
Loading
Personal Weather Stations






























Interactive Weather Map New forecast layout! Learn more

10-Day Weather Forecast

Advertisements
Track Severe Weather on mobile